createdAt,value
2023-05-22T00:01:44.432Z,100261.66
2023-05-22T00:04:14.037Z,100265.41
2023-05-22T00:06:43.910Z,100275.81
2023-05-22T00:09:10.592Z,100273.44
2023-05-22T00:11:37.231Z,100270.91
2023-05-22T00:14:03.898Z,100271.09
2023-05-22T00:16:30.724Z,100272.84
2023-05-22T00:18:57.709Z,100284.44
2023-05-22T00:21:24.957Z,100281.59
2023-05-22T00:23:51.571Z,100272.00
2023-05-22T00:26:18.184Z,100273.19
2023-05-22T00:28:44.846Z,100269.50
2023-05-22T00:31:11.640Z,100276.19
2023-05-22T00:33:38.357Z,100285.22
2023-05-22T00:36:05.525Z,100280.75
2023-05-22T00:38:37.602Z,100282.47
2023-05-22T00:41:06.059Z,100285.03
2023-05-22T00:43:33.893Z,100278.94
2023-05-22T00:46:00.840Z,100281.84
2023-05-22T00:48:27.640Z,100289.16
2023-05-22T00:50:55.446Z,100278.16
2023-05-22T00:53:24.292Z,100278.19
2023-05-22T00:55:51.830Z,100282.81
2023-05-22T00:58:19.266Z,100279.75
2023-05-22T01:00:46.944Z,100283.00
2023-05-22T01:03:14.851Z,100290.81
2023-05-22T01:05:42.214Z,100284.06
2023-05-22T01:08:09.360Z,100277.59
2023-05-22T01:10:39.466Z,100273.22
2023-05-22T01:13:51.171Z,100264.38
2023-05-22T01:16:29.865Z,100273.22
2023-05-22T01:19:23.424Z,100279.97
2023-05-22T01:22:08.321Z,100277.28
2023-05-22T01:25:00.687Z,100267.09
2023-05-22T01:27:48.842Z,100271.31
2023-05-22T01:30:34.060Z,100266.75
2023-05-22T01:33:03.786Z,100272.69
2023-05-22T01:35:32.658Z,100275.22
2023-05-22T01:38:00.734Z,100274.88
2023-05-22T01:40:28.453Z,100272.81
2023-05-22T01:42:55.542Z,100267.22
2023-05-22T01:45:22.288Z,100258.06
2023-05-22T01:47:49.147Z,100259.78
2023-05-22T01:50:16.210Z,100260.09
2023-05-22T01:53:13.774Z,100262.16
2023-05-22T01:55:46.235Z,100256.91
2023-05-22T01:58:17.655Z,100254.53
2023-05-22T02:00:46.336Z,100247.75
2023-05-22T02:03:19.384Z,100236.59
2023-05-22T02:05:49.483Z,100244.41
2023-05-22T02:08:17.020Z,100248.47
2023-05-22T02:10:45.879Z,100243.03
2023-05-22T02:13:13.040Z,100250.88
2023-05-22T02:15:40.101Z,100248.16
2023-05-22T02:18:15.340Z,100244.09
2023-05-22T02:20:42.305Z,100248.66
2023-05-22T02:23:09.327Z,100245.44
2023-05-22T02:25:36.151Z,100248.66
2023-05-22T02:28:02.873Z,100244.06
2023-05-22T02:30:29.564Z,100243.06
2023-05-22T02:32:58.369Z,100239.50
2023-05-22T02:35:25.006Z,100245.94
2023-05-22T02:37:51.776Z,100238.66
2023-05-22T02:40:18.401Z,100244.41
2023-05-22T02:42:45.025Z,100239.19
2023-05-22T02:45:11.754Z,100238.00
2023-05-22T02:47:38.440Z,100232.75
2023-05-22T02:50:05.573Z,100234.75
2023-05-22T02:52:32.147Z,100232.25
2023-05-22T02:54:58.852Z,100239.00
2023-05-22T02:57:25.467Z,100236.63
2023-05-22T02:59:52.662Z,100244.59
2023-05-22T03:02:19.892Z,100237.97
2023-05-22T03:04:46.691Z,100234.44
2023-05-22T03:07:13.365Z,100242.56
2023-05-22T03:09:40.000Z,100240.53
2023-05-22T03:12:09.361Z,100239.66
2023-05-22T03:14:36.662Z,100231.38
2023-05-22T03:17:03.779Z,100231.38
2023-05-22T03:19:30.548Z,100235.59
2023-05-22T03:21:57.596Z,100229.34
2023-05-22T03:24:24.198Z,100230.19
2023-05-22T03:26:50.991Z,100224.94
2023-05-22T03:29:17.788Z,100223.09
2023-05-22T03:31:44.517Z,100228.34
2023-05-22T03:34:11.252Z,100230.69
2023-05-22T03:36:37.933Z,100234.25
2023-05-22T03:39:04.949Z,100238.16
2023-05-22T03:41:31.556Z,100235.28
2023-05-22T03:43:58.457Z,100228.50
2023-05-22T03:46:25.302Z,100228.84
2023-05-22T03:48:52.070Z,100227.66
2023-05-22T03:51:20.262Z,100228.16
2023-05-22T03:53:47.261Z,100230.38
2023-05-22T03:56:13.883Z,100229.84
2023-05-22T03:58:40.946Z,100226.97
2023-05-22T04:01:09.906Z,100226.09
2023-05-22T04:03:37.651Z,100219.16
2023-05-22T04:06:05.698Z,100224.75
2023-05-22T04:08:32.475Z,100229.47
2023-05-22T04:10:59.164Z,100223.16
2023-05-22T04:13:27.435Z,100227.72
2023-05-22T04:15:54.185Z,100228.38
2023-05-22T04:18:20.899Z,100229.38
2023-05-22T04:20:47.523Z,100228.31
2023-05-22T04:23:14.171Z,100231.84
2023-05-22T04:25:40.839Z,100234.38
2023-05-22T04:28:09.307Z,100229.94
2023-05-22T04:30:40.434Z,100231.59
2023-05-22T04:33:08.489Z,100222.72
2023-05-22T04:35:35.472Z,100229.13
2023-05-22T04:38:02.260Z,100230.09
2023-05-22T04:40:30.359Z,100226.66
2023-05-22T04:42:59.929Z,100232.41
2023-05-22T04:45:28.934Z,100234.59
2023-05-22T04:47:56.544Z,100233.03
2023-05-22T04:50:24.038Z,100236.03
2023-05-22T04:52:50.979Z,100244.97
2023-05-22T04:55:19.176Z,100241.72
2023-05-22T04:57:46.090Z,100239.78
2023-05-22T05:00:14.500Z,100240.72
2023-05-22T05:02:41.398Z,100245.09
2023-05-22T05:05:08.536Z,100247.28
2023-05-22T05:07:39.364Z,100243.81
2023-05-22T05:10:07.444Z,100248.34
2023-05-22T05:12:34.422Z,100251.19
2023-05-22T05:15:01.547Z,100256.69
2023-05-22T05:17:28.785Z,100251.56
2023-05-22T05:19:55.552Z,100258.50
2023-05-22T05:22:22.216Z,100261.16
2023-05-22T05:24:48.915Z,100254.13
2023-05-22T05:27:16.050Z,100259.66
2023-05-22T05:29:42.683Z,100251.50
2023-05-22T05:32:11.572Z,100258.91
2023-05-22T05:34:38.496Z,100258.53
2023-05-22T05:37:05.841Z,100260.69
2023-05-22T05:39:32.476Z,100265.75
2023-05-22T05:42:00.230Z,100273.34
2023-05-22T05:44:27.091Z,100278.44
2023-05-22T05:46:53.875Z,100279.75
2023-05-22T05:49:20.513Z,100276.47
2023-05-22T05:51:47.144Z,100276.34
2023-05-22T05:54:13.785Z,100278.16
2023-05-22T05:56:40.748Z,100278.44
2023-05-22T05:59:08.054Z,100275.81
2023-05-22T06:01:35.384Z,100280.09
2023-05-22T06:04:03.538Z,100272.66
2023-05-22T06:06:35.749Z,100273.59
2023-05-22T06:09:05.440Z,100275.72
2023-05-22T06:11:33.231Z,100273.31
2023-05-22T06:14:01.377Z,100276.31
2023-05-22T06:16:28.371Z,100275.50
2023-05-22T06:18:57.160Z,100270.66
2023-05-22T06:21:24.544Z,100267.34
2023-05-22T06:23:51.701Z,100271.56
2023-05-22T06:26:18.842Z,100268.66
2023-05-22T06:28:48.200Z,100274.38
2023-05-22T06:31:14.813Z,100265.78
2023-05-22T06:33:43.401Z,100264.19
2023-05-22T06:36:11.543Z,100265.97
2023-05-22T06:38:39.189Z,100271.72
2023-05-22T06:41:06.522Z,100269.13
2023-05-22T06:43:33.297Z,100263.25
2023-05-22T06:46:00.202Z,100266.69
2023-05-22T06:48:26.850Z,100262.53
2023-05-22T06:50:53.495Z,100270.41
2023-05-22T06:53:20.353Z,100271.91
2023-05-22T06:55:47.042Z,100273.88
2023-05-22T06:58:13.803Z,100283.03
2023-05-22T07:00:40.604Z,100265.41
2023-05-22T07:03:07.632Z,100270.03
2023-05-22T07:05:34.329Z,100274.94
2023-05-22T07:08:01.638Z,100274.09
2023-05-22T07:10:28.543Z,100275.38
2023-05-22T07:12:55.279Z,100273.72
2023-05-22T07:15:22.077Z,100281.50
2023-05-22T07:17:49.724Z,100287.38
2023-05-22T07:20:17.800Z,100283.63
2023-05-22T07:22:44.484Z,100280.72
2023-05-22T07:25:11.295Z,100273.00
2023-05-22T07:27:38.003Z,100275.34
2023-05-22T07:30:05.221Z,100271.97
2023-05-22T07:32:31.847Z,100272.41
2023-05-22T07:34:58.436Z,100277.03
2023-05-22T07:37:25.052Z,100270.50
2023-05-22T07:39:51.669Z,100272.63
2023-05-22T07:42:18.374Z,100269.69
2023-05-22T07:44:45.023Z,100265.88
2023-05-22T07:47:11.678Z,100253.44
2023-05-22T07:49:38.277Z,100261.84
2023-05-22T07:52:05.199Z,100272.41
2023-05-22T07:54:31.823Z,100275.56
2023-05-22T07:56:58.455Z,100278.28
2023-05-22T07:59:25.597Z,100280.19
2023-05-22T08:01:52.357Z,100287.16
2023-05-22T08:04:19.240Z,100275.13
2023-05-22T08:06:46.392Z,100283.16
2023-05-22T08:09:13.472Z,100270.69
2023-05-22T08:11:42.269Z,100272.81
2023-05-22T08:14:09.100Z,100262.91
2023-05-22T08:16:35.842Z,100266.91
2023-05-22T08:19:03.266Z,100273.63
2023-05-22T08:21:30.033Z,100261.41
2023-05-22T08:23:56.634Z,100268.34
2023-05-22T08:26:23.271Z,100265.75
2023-05-22T08:28:50.019Z,100275.19
2023-05-22T08:31:16.676Z,100272.16
2023-05-22T08:33:43.338Z,100273.78
2023-05-22T08:36:10.021Z,100269.53
2023-05-22T08:38:37.152Z,100271.06
2023-05-22T08:41:06.092Z,100271.59
2023-05-22T08:43:32.684Z,100272.38
2023-05-22T08:46:09.395Z,100265.41
2023-05-22T08:48:37.286Z,100261.50
2023-05-22T08:51:05.996Z,100262.75
2023-05-22T08:53:37.146Z,100257.25
2023-05-22T08:56:06.739Z,100271.19
2023-05-22T08:58:38.253Z,100271.66
2023-05-22T09:01:07.690Z,100262.97
2023-05-22T09:03:36.019Z,100261.84
2023-05-22T09:06:03.323Z,100268.31
2023-05-22T09:08:30.113Z,100265.22
2023-05-22T09:10:56.760Z,100256.69
2023-05-22T09:13:28.602Z,100260.53
2023-05-22T09:16:00.712Z,100259.38
2023-05-22T09:18:29.128Z,100255.72
2023-05-22T09:20:58.045Z,100257.81
2023-05-22T09:23:28.282Z,100260.28
2023-05-22T09:26:00.265Z,100259.06
2023-05-22T09:28:27.789Z,100254.72
2023-05-22T09:30:55.598Z,100261.19
2023-05-22T09:33:23.447Z,100259.13
2023-05-22T09:35:54.190Z,100256.25
2023-05-22T09:38:28.675Z,100257.25
2023-05-22T09:40:56.428Z,100252.59
2023-05-22T09:43:25.403Z,100252.00
2023-05-22T09:46:02.064Z,100247.44
2023-05-22T09:48:29.043Z,100247.53
2023-05-22T09:50:59.777Z,100246.25
2023-05-22T09:53:29.835Z,100248.72
2023-05-22T09:55:58.195Z,100248.13
2023-05-22T09:58:27.294Z,100238.31
2023-05-22T10:00:56.370Z,100246.13
2023-05-22T10:03:24.597Z,100241.69
2023-05-22T10:05:54.421Z,100244.31
2023-05-22T10:08:28.233Z,100241.22
2023-05-22T10:10:55.392Z,100242.19
2023-05-22T10:13:22.281Z,100237.63
2023-05-22T10:15:49.937Z,100237.81
2023-05-22T10:18:17.531Z,100240.84
2023-05-22T10:20:46.891Z,100228.41
2023-05-22T10:23:16.573Z,100234.19
2023-05-22T10:25:44.719Z,100230.66
2023-05-22T10:28:14.297Z,100214.97
2023-05-22T10:30:41.233Z,100219.06
2023-05-22T10:33:36.658Z,100218.09
2023-05-22T10:36:23.126Z,100218.16
2023-05-22T10:39:01.564Z,100210.91
2023-05-22T10:41:28.543Z,100216.53
2023-05-22T10:43:57.415Z,100200.81
2023-05-22T10:46:24.481Z,100204.84
2023-05-22T10:48:54.264Z,100204.75
2023-05-22T10:51:24.757Z,100203.38
2023-05-22T10:53:55.599Z,100202.28
2023-05-22T10:56:25.146Z,100196.09
2023-05-22T10:58:57.740Z,100190.47
2023-05-22T11:01:27.427Z,100189.22
2023-05-22T11:03:55.258Z,100194.66
2023-05-22T11:06:37.059Z,100188.81
2023-05-22T11:09:31.082Z,100176.84
2023-05-22T11:12:17.802Z,100176.28
2023-05-22T11:14:55.661Z,100170.56
2023-05-22T11:17:29.396Z,100167.66
2023-05-22T11:19:59.842Z,100166.66
2023-05-22T11:22:34.322Z,100164.94
2023-05-22T11:25:05.147Z,100165.00
2023-05-22T11:27:31.997Z,100163.00
2023-05-22T11:30:01.363Z,100153.28
2023-05-22T11:32:28.364Z,100157.59
2023-05-22T11:34:57.147Z,100153.25
2023-05-22T11:37:24.111Z,100158.56
2023-05-22T11:40:04.753Z,100155.34
2023-05-22T11:42:31.537Z,100151.13
2023-05-22T11:44:58.369Z,100148.28
2023-05-22T11:47:26.867Z,100153.13
2023-05-22T11:49:54.189Z,100149.94
2023-05-22T11:52:21.106Z,100155.78
2023-05-22T11:54:48.407Z,100145.19
2023-05-22T11:57:15.504Z,100154.47
2023-05-22T11:59:48.781Z,100141.38
2023-05-22T12:02:19.126Z,100146.22
2023-05-22T12:04:46.393Z,100140.91
2023-05-22T12:07:13.569Z,100148.16
2023-05-22T12:09:40.882Z,100136.88
2023-05-22T12:12:11.622Z,100141.00
2023-05-22T12:14:38.609Z,100138.53
2023-05-22T12:17:06.429Z,100134.00
2023-05-22T12:19:33.291Z,100132.22
2023-05-22T12:21:59.873Z,100135.78
2023-05-22T12:24:26.573Z,100124.78
2023-05-22T12:26:53.933Z,100121.28
2023-05-22T12:29:23.786Z,100123.59
2023-05-22T12:31:51.276Z,100116.75
2023-05-22T12:34:21.227Z,100115.66
2023-05-22T12:36:48.079Z,100113.00
2023-05-22T12:39:18.679Z,100112.72
2023-05-22T12:41:45.950Z,100099.50
2023-05-22T12:44:14.973Z,100100.31
2023-05-22T12:46:41.967Z,100096.78
2023-05-22T12:49:09.089Z,100089.59
2023-05-22T12:51:35.766Z,100088.91
2023-05-22T12:54:03.660Z,100075.69
2023-05-22T12:56:31.448Z,100086.00
2023-05-22T12:58:58.725Z,100075.28
2023-05-22T13:01:26.305Z,100075.06
2023-05-22T13:03:53.073Z,100073.09
2023-05-22T13:06:20.621Z,100074.28
2023-05-22T13:08:47.324Z,100075.66
2023-05-22T13:11:14.042Z,100068.75
2023-05-22T13:13:40.733Z,100063.78
2023-05-22T13:16:07.428Z,100059.06
2023-05-22T13:18:34.226Z,100058.22
2023-05-22T13:21:00.918Z,100059.56
2023-05-22T13:23:27.502Z,100048.47
2023-05-22T13:25:54.169Z,100047.06
2023-05-22T13:28:21.079Z,100041.75
2023-05-22T13:30:47.639Z,100046.41
2023-05-22T13:33:14.314Z,100034.97
2023-05-22T13:35:41.172Z,100037.47
2023-05-22T13:38:07.946Z,100032.84
2023-05-22T13:40:34.584Z,100040.41
2023-05-22T13:43:01.236Z,100032.91
2023-05-22T13:45:27.921Z,100032.66
2023-05-22T13:47:54.596Z,100035.16
2023-05-22T13:50:21.240Z,100027.03
2023-05-22T13:52:47.926Z,100030.03
2023-05-22T13:55:14.585Z,100033.78
2023-05-22T13:57:41.343Z,100030.19
2023-05-22T14:00:09.439Z,100028.50
2023-05-22T14:02:36.117Z,100021.53
2023-05-22T14:05:03.074Z,100025.72
2023-05-22T14:07:29.653Z,100027.94
2023-05-22T14:09:57.144Z,100031.31
2023-05-22T14:12:25.179Z,100018.81
2023-05-22T14:14:51.794Z,100032.38
2023-05-22T14:17:18.389Z,100027.09
2023-05-22T14:19:45.084Z,100025.47
2023-05-22T14:22:11.803Z,100016.84
2023-05-22T14:24:38.425Z,100010.19
2023-05-22T14:27:05.354Z,100010.44
2023-05-22T14:29:31.955Z,100006.13
2023-05-22T14:32:04.309Z,100002.69
2023-05-22T14:34:31.555Z,100007.56
2023-05-22T14:36:58.563Z,100010.34
2023-05-22T14:39:25.833Z,100009.66
2023-05-22T14:41:55.548Z,100011.59
2023-05-22T14:44:24.936Z,100009.13
2023-05-22T14:46:53.541Z,100010.03
2023-05-22T14:49:20.417Z,100007.44
2023-05-22T14:51:48.361Z,100003.41
2023-05-22T14:54:19.185Z,99998.41
2023-05-22T14:56:46.362Z,100004.50
2023-05-22T14:59:14.357Z,99999.31
2023-05-22T15:01:41.503Z,99997.84
2023-05-22T15:04:08.882Z,100000.94
2023-05-22T15:06:36.227Z,99996.09
2023-05-22T15:09:03.806Z,99998.78
2023-05-22T15:11:30.427Z,100004.81
2023-05-22T15:13:57.121Z,99999.38
2023-05-22T15:16:25.703Z,100004.63
2023-05-22T15:18:52.540Z,100004.34
2023-05-22T15:21:19.551Z,99997.09
2023-05-22T15:23:46.349Z,99997.81
2023-05-22T15:26:12.932Z,99994.78
2023-05-22T15:28:39.581Z,99993.44
2023-05-22T15:31:06.527Z,99986.00
2023-05-22T15:33:34.381Z,99976.47
2023-05-22T15:36:01.046Z,99982.88
2023-05-22T15:38:28.370Z,99983.22
2023-05-22T15:40:55.049Z,99988.16
2023-05-22T15:43:21.967Z,99985.69
2023-05-22T15:45:49.484Z,99980.91
2023-05-22T15:48:16.874Z,99985.94
2023-05-22T15:50:43.970Z,99991.03
2023-05-22T15:53:10.699Z,99975.53
2023-05-22T15:55:37.591Z,99978.72
2023-05-22T15:58:06.575Z,99976.63
2023-05-22T16:00:38.680Z,99980.84
2023-05-22T16:03:08.898Z,99980.84
2023-05-22T16:05:40.400Z,99982.28
2023-05-22T16:08:10.475Z,99985.28
2023-05-22T16:10:37.376Z,99981.09
2023-05-22T16:13:07.888Z,99976.34
2023-05-22T16:15:34.598Z,99980.88
2023-05-22T16:18:01.357Z,99970.06
2023-05-22T16:20:28.075Z,99979.59
2023-05-22T16:22:54.735Z,99981.63
2023-05-22T16:25:21.570Z,99976.28
2023-05-22T16:27:48.228Z,99982.97
2023-05-22T16:30:17.092Z,99982.38
2023-05-22T16:32:48.055Z,99978.13
2023-05-22T16:35:15.452Z,99980.84
2023-05-22T16:37:42.173Z,99978.31
2023-05-22T16:40:11.890Z,99973.50
2023-05-22T16:42:38.544Z,99975.91
2023-05-22T16:45:06.587Z,99977.88
2023-05-22T16:47:33.282Z,99977.16
2023-05-22T16:50:00.167Z,99975.50
2023-05-22T16:52:26.912Z,99981.72
2023-05-22T16:54:54.094Z,99988.81
2023-05-22T16:57:21.358Z,99981.88
2023-05-22T16:59:48.156Z,99985.22
2023-05-22T17:02:15.008Z,99984.28
2023-05-22T17:04:41.641Z,99988.97
2023-05-22T17:07:08.232Z,99996.34
2023-05-22T17:09:34.912Z,99991.97
2023-05-22T17:12:01.525Z,99992.91
2023-05-22T17:14:28.134Z,99987.50
2023-05-22T17:16:55.804Z,99995.84
2023-05-22T17:19:22.989Z,100002.03
2023-05-22T17:21:49.769Z,100007.09
2023-05-22T17:24:16.466Z,100008.69
2023-05-22T17:26:44.507Z,100005.31
2023-05-22T17:29:11.158Z,100012.28
2023-05-22T17:31:39.501Z,100012.50
2023-05-22T17:34:06.524Z,100010.75
2023-05-22T17:36:33.387Z,100008.25
2023-05-22T17:39:00.114Z,100011.72
2023-05-22T17:41:26.749Z,100010.63
2023-05-22T17:43:55.907Z,100010.63
2023-05-22T17:46:22.951Z,100022.28
2023-05-22T17:48:49.657Z,100022.84
2023-05-22T17:51:16.339Z,100030.22
2023-05-22T17:53:43.106Z,100033.69
2023-05-22T17:56:09.842Z,100036.44
2023-05-22T17:58:36.482Z,100038.13
2023-05-22T18:01:03.259Z,100037.81
2023-05-22T18:03:30.832Z,100030.50
2023-05-22T18:05:57.756Z,100032.94
2023-05-22T18:08:24.480Z,100035.91
2023-05-22T18:10:51.385Z,100034.84
2023-05-22T18:13:19.523Z,100043.41
2023-05-22T18:15:46.206Z,100045.38
2023-05-22T18:18:13.182Z,100045.22
2023-05-22T18:20:40.282Z,100043.00
2023-05-22T18:23:07.180Z,100046.53
2023-05-22T18:25:33.819Z,100052.13
2023-05-22T18:28:00.586Z,100049.63
2023-05-22T18:30:27.208Z,100050.75
2023-05-22T18:32:53.906Z,100049.09
2023-05-22T18:35:20.696Z,100049.84
2023-05-22T18:37:47.313Z,100053.09
2023-05-22T18:40:13.960Z,100051.19
2023-05-22T18:42:40.718Z,100050.44
2023-05-22T18:45:08.055Z,100049.41
2023-05-22T18:47:34.865Z,100051.97
2023-05-22T18:50:01.568Z,100045.47
2023-05-22T18:52:28.211Z,100058.59
2023-05-22T18:54:54.907Z,100047.06
2023-05-22T18:57:21.701Z,100046.88
2023-05-22T18:59:48.382Z,100053.00
2023-05-22T19:02:16.881Z,100042.94
2023-05-22T19:04:43.817Z,100051.78
2023-05-22T19:07:10.649Z,100053.88
2023-05-22T19:09:37.646Z,100053.72
2023-05-22T19:12:04.919Z,100061.28
2023-05-22T19:14:31.799Z,100064.47
2023-05-22T19:17:00.295Z,100068.47
2023-05-22T19:19:27.583Z,100073.94
2023-05-22T19:21:54.382Z,100071.00
2023-05-22T19:24:21.159Z,100077.72
2023-05-22T19:26:47.859Z,100076.63
2023-05-22T19:29:15.778Z,100080.56
2023-05-22T19:31:42.648Z,100084.75
2023-05-22T19:34:09.311Z,100086.16
2023-05-22T19:36:36.282Z,100099.59
2023-05-22T19:39:04.015Z,100089.44
2023-05-22T19:41:30.617Z,100088.94
2023-05-22T19:43:57.472Z,100090.63
2023-05-22T19:46:24.432Z,100100.25
2023-05-22T19:48:51.064Z,100092.63
2023-05-22T19:51:17.715Z,100092.00
2023-05-22T19:53:44.496Z,100095.63
2023-05-22T19:56:11.502Z,100089.81
2023-05-22T19:58:38.154Z,100084.75
2023-05-22T20:01:04.821Z,100087.22
2023-05-22T20:03:31.616Z,100086.50
2023-05-22T20:05:58.325Z,100083.09
2023-05-22T20:08:25.567Z,100088.69
2023-05-22T20:10:52.588Z,100094.38
2023-05-22T20:13:19.176Z,100092.28
2023-05-22T20:15:47.837Z,100094.69
2023-05-22T20:18:14.626Z,100094.16
2023-05-22T20:20:41.463Z,100090.38
2023-05-22T20:23:08.190Z,100088.50
2023-05-22T20:25:35.032Z,100085.03
2023-05-22T20:28:03.810Z,100086.63
2023-05-22T20:30:31.102Z,100085.28
2023-05-22T20:32:57.836Z,100086.31
2023-05-22T20:35:26.387Z,100086.03
2023-05-22T20:37:53.432Z,100083.31
2023-05-22T20:40:20.366Z,100080.69
2023-05-22T20:42:47.515Z,100077.78
2023-05-22T20:45:15.988Z,100064.34
2023-05-22T20:47:43.153Z,100081.72
2023-05-22T20:50:10.198Z,100082.84
2023-05-22T20:52:39.888Z,100083.34
2023-05-22T20:55:06.947Z,100080.44
2023-05-22T20:57:34.349Z,100076.69
2023-05-22T21:00:01.530Z,100085.13
2023-05-22T21:02:28.254Z,100072.75
2023-05-22T21:04:54.994Z,100078.28
2023-05-22T21:07:21.686Z,100079.78
2023-05-22T21:09:48.268Z,100076.38
2023-05-22T21:12:14.900Z,100076.75
2023-05-22T21:14:43.466Z,100083.41
2023-05-22T21:17:10.473Z,100070.19
2023-05-22T21:19:37.172Z,100073.56
2023-05-22T21:22:04.034Z,100074.69
2023-05-22T21:24:32.530Z,100079.78
2023-05-22T21:26:59.686Z,100082.28
2023-05-22T21:29:26.555Z,100069.25
2023-05-22T21:31:53.295Z,100076.75
2023-05-22T21:34:19.997Z,100076.47
2023-05-22T21:36:46.719Z,100080.81
2023-05-22T21:39:13.363Z,100076.06
2023-05-22T21:41:40.025Z,100091.56
2023-05-22T21:44:07.910Z,100094.84
2023-05-22T21:46:34.765Z,100090.16
2023-05-22T21:49:03.314Z,100088.81
2023-05-22T21:51:29.975Z,100094.88
2023-05-22T21:53:56.595Z,100091.84
2023-05-22T21:56:23.278Z,100093.28
2023-05-22T21:58:49.918Z,100086.69
2023-05-22T22:01:16.615Z,100085.16
2023-05-22T22:03:43.368Z,100083.34
2023-05-22T22:06:10.303Z,100077.81
2023-05-22T22:08:38.240Z,100083.56
2023-05-22T22:11:04.913Z,100081.31
2023-05-22T22:13:31.649Z,100079.13
2023-05-22T22:15:59.374Z,100079.56
2023-05-22T22:18:26.104Z,100084.50
2023-05-22T22:20:54.150Z,100082.00
2023-05-22T22:23:21.947Z,100078.78
2023-05-22T22:25:48.996Z,100086.09
2023-05-22T22:28:15.919Z,100076.25
2023-05-22T22:30:42.649Z,100078.97
2023-05-22T22:33:09.448Z,100087.13
2023-05-22T22:35:36.298Z,100091.25
2023-05-22T22:38:03.231Z,100081.91
2023-05-22T22:40:29.839Z,100086.53
2023-05-22T22:42:56.436Z,100086.72
2023-05-22T22:45:23.036Z,100087.41
2023-05-22T22:47:49.673Z,100077.41
2023-05-22T22:50:16.807Z,100071.13
2023-05-22T22:52:46.275Z,100077.31
2023-05-22T22:55:13.535Z,100068.75
2023-05-22T22:57:43.355Z,100074.38
2023-05-22T23:00:13.206Z,100075.03
2023-05-22T23:02:40.341Z,100072.19
2023-05-22T23:05:07.772Z,100079.16
2023-05-22T23:07:34.673Z,100076.97
2023-05-22T23:10:01.240Z,100072.59
2023-05-22T23:12:27.899Z,100072.78
2023-05-22T23:14:55.473Z,100072.25
2023-05-22T23:17:22.062Z,100070.38
2023-05-22T23:19:48.617Z,100071.41
2023-05-22T23:22:15.246Z,100078.03
2023-05-22T23:24:41.824Z,100072.66
2023-05-22T23:27:08.396Z,100071.78
2023-05-22T23:29:34.988Z,100077.69
2023-05-22T23:32:01.650Z,100072.13
2023-05-22T23:34:28.255Z,100071.78
2023-05-22T23:36:54.912Z,100069.59
2023-05-22T23:39:21.539Z,100075.19
2023-05-22T23:41:48.187Z,100076.25
2023-05-22T23:44:14.855Z,100073.19
2023-05-22T23:46:42.532Z,100072.84
2023-05-22T23:49:09.231Z,100072.84
2023-05-22T23:51:36.657Z,100074.88
2023-05-22T23:54:03.546Z,100074.88
2023-05-22T23:56:30.156Z,100076.06
2023-05-22T23:58:56.799Z,100083.34
